createdAt,value
2023-05-24T00:01:43.436Z,100.00
2023-05-24T00:04:13.355Z,100.00
2023-05-24T00:06:44.984Z,100.00
2023-05-24T00:09:13.513Z,100.00
2023-05-24T00:11:41.849Z,100.00
2023-05-24T00:14:10.180Z,100.00
2023-05-24T00:16:38.993Z,100.00
2023-05-24T00:19:07.365Z,100.00
2023-05-24T00:21:37.426Z,100.00
2023-05-24T00:24:06.620Z,100.00
2023-05-24T00:26:34.909Z,100.00
2023-05-24T00:29:04.015Z,100.00
2023-05-24T00:31:33.290Z,100.00
2023-05-24T00:34:01.695Z,100.00
2023-05-24T00:36:30.035Z,100.00
2023-05-24T00:39:00.040Z,100.00
2023-05-24T00:41:28.433Z,100.00
2023-05-24T00:43:56.857Z,100.00
2023-05-24T00:46:28.514Z,100.00
2023-05-24T00:48:57.227Z,100.00
2023-05-24T00:51:26.549Z,100.00
2023-05-24T00:53:54.931Z,100.00
2023-05-24T00:56:24.689Z,100.00
2023-05-24T00:58:56.204Z,100.00
2023-05-24T01:01:26.144Z,100.00
2023-05-24T01:03:54.868Z,100.00
2023-05-24T01:06:23.609Z,100.00
2023-05-24T01:09:12.023Z,100.00
2023-05-24T01:11:48.010Z,100.00
2023-05-24T01:14:21.322Z,100.00
2023-05-24T01:16:56.545Z,100.00
2023-05-24T01:19:43.464Z,100.00
2023-05-24T01:22:19.122Z,100.00
2023-05-24T01:24:55.197Z,100.00
2023-05-24T01:27:25.180Z,100.00
2023-05-24T01:29:54.445Z,100.00
2023-05-24T01:32:22.923Z,100.00
2023-05-24T01:34:51.369Z,100.00
2023-05-24T01:37:19.792Z,100.00
2023-05-24T01:39:48.462Z,100.00
2023-05-24T01:42:24.168Z,100.00
2023-05-24T01:45:00.838Z,100.00
2023-05-24T01:47:33.130Z,100.00
2023-05-24T01:50:04.682Z,100.00
2023-05-24T01:52:33.815Z,100.00
2023-05-24T01:55:04.217Z,100.00
2023-05-24T01:57:33.524Z,100.00
2023-05-24T02:00:03.974Z,100.00
2023-05-24T02:02:41.132Z,100.00
2023-05-24T02:05:10.676Z,100.00
2023-05-24T02:07:39.312Z,100.00
2023-05-24T02:10:08.738Z,100.00
2023-05-24T02:12:37.142Z,100.00
2023-05-24T02:15:07.902Z,100.00
2023-05-24T02:17:36.369Z,100.00
2023-05-24T02:20:05.675Z,100.00
2023-05-24T02:22:34.051Z,100.00
2023-05-24T02:25:02.409Z,100.00
2023-05-24T02:27:30.877Z,100.00
2023-05-24T02:29:59.252Z,100.00
2023-05-24T02:32:29.045Z,100.00
2023-05-24T02:34:59.273Z,100.00
2023-05-24T02:37:27.946Z,100.00
2023-05-24T02:39:56.278Z,100.00
2023-05-24T02:42:24.682Z,100.00
2023-05-24T02:44:53.612Z,100.00
2023-05-24T02:47:22.151Z,100.00
2023-05-24T02:49:52.202Z,100.00
2023-05-24T02:52:21.943Z,100.00
2023-05-24T02:54:50.521Z,100.00
2023-05-24T02:57:20.976Z,100.00
2023-05-24T02:59:49.357Z,100.00
2023-05-24T03:02:19.655Z,100.00
2023-05-24T03:04:48.112Z,100.00
2023-05-24T03:07:17.954Z,100.00
2023-05-24T03:09:46.387Z,100.00
2023-05-24T03:12:14.732Z,100.00
2023-05-24T03:14:43.285Z,100.00
2023-05-24T03:17:12.091Z,100.00
2023-05-24T03:19:40.419Z,100.00
2023-05-24T03:22:08.813Z,100.00
2023-05-24T03:24:38.999Z,100.00
2023-05-24T03:27:08.784Z,100.00
2023-05-24T03:29:37.374Z,100.00
2023-05-24T03:32:06.750Z,100.00
2023-05-24T03:34:35.261Z,100.00
2023-05-24T03:37:03.899Z,100.00
2023-05-24T03:39:32.271Z,100.00
2023-05-24T03:42:19.004Z,100.00
2023-05-24T03:44:47.676Z,100.00
2023-05-24T03:47:16.310Z,100.00
2023-05-24T03:49:44.660Z,100.00
2023-05-24T03:52:13.173Z,100.00
2023-05-24T03:54:41.551Z,100.00
2023-05-24T03:57:10.422Z,100.00
2023-05-24T03:59:41.373Z,100.00
2023-05-24T04:02:10.027Z,100.00
2023-05-24T04:04:38.568Z,100.00
2023-05-24T04:07:08.128Z,100.00
2023-05-24T04:09:36.489Z,100.00
2023-05-24T04:12:05.267Z,100.00
2023-05-24T04:14:34.007Z,100.00
2023-05-24T04:17:06.023Z,100.00
2023-05-24T04:19:34.551Z,100.00
2023-05-24T04:22:02.993Z,100.00
2023-05-24T04:24:31.833Z,100.00
2023-05-24T04:27:00.155Z,100.00
2023-05-24T04:29:28.684Z,100.00
2023-05-24T04:31:57.358Z,100.00
2023-05-24T04:34:29.921Z,100.00
2023-05-24T04:36:58.405Z,100.00
2023-05-24T04:39:26.798Z,100.00
2023-05-24T04:41:58.133Z,100.00
2023-05-24T04:44:26.460Z,100.00
2023-05-24T04:46:54.819Z,100.00
2023-05-24T04:49:23.652Z,100.00
2023-05-24T04:51:55.104Z,100.00
2023-05-24T04:54:23.669Z,100.00
2023-05-24T04:56:52.161Z,100.00
2023-05-24T04:59:20.563Z,100.00
2023-05-24T05:01:49.022Z,100.00
2023-05-24T05:04:17.755Z,100.00
2023-05-24T05:06:46.570Z,100.00
2023-05-24T05:09:16.272Z,100.00
2023-05-24T05:11:44.614Z,100.00
2023-05-24T05:14:13.003Z,100.00
2023-05-24T05:16:41.451Z,100.00
2023-05-24T05:19:10.043Z,100.00
2023-05-24T05:21:39.852Z,100.00
2023-05-24T05:24:08.261Z,100.00
2023-05-24T05:26:38.098Z,100.00
2023-05-24T05:29:06.398Z,100.00
2023-05-24T05:31:35.237Z,100.00
2023-05-24T05:34:03.553Z,100.00
2023-05-24T05:36:32.446Z,100.00
2023-05-24T05:39:00.786Z,100.00
2023-05-24T05:41:29.099Z,100.00
2023-05-24T05:43:59.084Z,100.00
2023-05-24T05:46:27.413Z,100.00
2023-05-24T05:48:55.709Z,100.00
2023-05-24T05:51:24.091Z,100.00
2023-05-24T05:53:52.404Z,100.00
2023-05-24T05:56:20.735Z,100.00
2023-05-24T05:58:49.376Z,100.00
2023-05-24T06:01:19.186Z,100.00
2023-05-24T06:03:47.813Z,100.00
2023-05-24T06:06:16.417Z,100.00
2023-05-24T06:08:44.945Z,100.00
2023-05-24T06:11:13.607Z,100.00
2023-05-24T06:13:41.836Z,100.00
2023-05-24T06:16:10.526Z,100.00
2023-05-24T06:18:47.322Z,100.00
2023-05-24T06:21:21.969Z,100.00
2023-05-24T06:23:50.340Z,100.00
2023-05-24T06:26:20.107Z,100.00
2023-05-24T06:28:48.469Z,100.00
2023-05-24T06:31:17.001Z,100.00
2023-05-24T06:33:52.401Z,100.00
2023-05-24T06:36:31.102Z,100.00
2023-05-24T06:38:59.842Z,100.00
2023-05-24T06:41:28.506Z,100.00
2023-05-24T06:43:56.862Z,100.00
2023-05-24T06:46:25.190Z,99.36
2023-05-24T06:48:55.074Z,100.00
2023-05-24T06:51:23.488Z,99.54
2023-05-24T06:53:52.250Z,100.00
2023-05-24T06:56:20.589Z,100.00
2023-05-24T06:58:48.962Z,100.00
2023-05-24T07:01:18.763Z,100.00
2023-05-24T07:03:47.318Z,99.21
2023-05-24T07:06:17.296Z,99.90
2023-05-24T07:08:46.097Z,98.74
2023-05-24T07:11:14.418Z,98.07
2023-05-24T07:13:42.814Z,97.38
2023-05-24T07:16:11.864Z,96.48
2023-05-24T07:18:41.805Z,98.21
2023-05-24T07:21:10.560Z,98.63
2023-05-24T07:23:40.387Z,95.53
2023-05-24T07:26:09.132Z,94.17
2023-05-24T07:28:38.985Z,95.59
2023-05-24T07:31:08.272Z,94.46
2023-05-24T07:33:38.036Z,94.28
2023-05-24T07:36:07.363Z,94.03
2023-05-24T07:38:36.173Z,95.93
2023-05-24T07:41:06.402Z,96.55
2023-05-24T07:43:34.737Z,97.63
2023-05-24T07:46:03.111Z,92.21
2023-05-24T07:48:31.952Z,91.51
2023-05-24T07:51:00.225Z,90.12
2023-05-24T07:53:28.578Z,92.66
2023-05-24T07:55:56.917Z,90.72
2023-05-24T07:58:26.676Z,91.62
2023-05-24T08:00:55.966Z,90.06
2023-05-24T08:03:26.195Z,91.56
2023-05-24T08:05:54.707Z,91.51
2023-05-24T08:08:23.193Z,89.61
2023-05-24T08:10:51.517Z,88.71
2023-05-24T08:13:19.816Z,88.95
2023-05-24T08:15:49.552Z,89.46
2023-05-24T08:18:18.222Z,89.02
2023-05-24T08:20:46.842Z,87.23
2023-05-24T08:23:15.338Z,86.36
2023-05-24T08:25:44.252Z,85.49
2023-05-24T08:28:12.927Z,85.54
2023-05-24T08:30:41.834Z,84.82
2023-05-24T08:33:11.669Z,85.71
2023-05-24T08:35:40.229Z,85.17
2023-05-24T08:38:08.736Z,84.85
2023-05-24T08:40:37.071Z,82.46
2023-05-24T08:43:11.868Z,83.22
2023-05-24T08:45:41.232Z,84.99
2023-05-24T08:48:11.221Z,83.48
2023-05-24T08:50:39.679Z,81.45
2023-05-24T08:53:08.286Z,83.19
2023-05-24T08:55:36.597Z,81.13
2023-05-24T08:58:05.164Z,81.78
2023-05-24T09:00:33.534Z,79.12
2023-05-24T09:03:01.875Z,76.53
2023-05-24T09:05:31.901Z,75.58
2023-05-24T09:08:01.260Z,77.66
2023-05-24T09:10:37.946Z,81.87
2023-05-24T09:13:10.158Z,76.83
2023-05-24T09:15:38.548Z,74.75
2023-05-24T09:18:06.956Z,73.99
2023-05-24T09:20:37.151Z,72.58
2023-05-24T09:23:05.469Z,74.45
2023-05-24T09:25:34.073Z,76.77
2023-05-24T09:28:06.784Z,76.85
2023-05-24T09:30:35.384Z,75.25
2023-05-24T09:33:05.608Z,72.41
2023-05-24T09:35:34.073Z,70.11
2023-05-24T09:38:04.106Z,71.78
2023-05-24T09:40:32.893Z,73.70
2023-05-24T09:43:04.976Z,70.45
2023-05-24T09:45:33.564Z,70.80
2023-05-24T09:48:04.889Z,66.05
2023-05-24T09:50:33.593Z,65.01
2023-05-24T09:53:03.914Z,68.44
2023-05-24T09:55:32.439Z,67.71
2023-05-24T09:58:04.672Z,66.87
2023-05-24T10:00:36.516Z,60.46
2023-05-24T10:03:06.995Z,60.00
2023-05-24T10:05:35.477Z,63.74
2023-05-24T10:08:06.281Z,63.65
2023-05-24T10:10:35.017Z,61.51
2023-05-24T10:13:03.649Z,62.45
2023-05-24T10:15:31.971Z,61.51
2023-05-24T10:18:02.002Z,59.74
2023-05-24T10:20:30.666Z,58.58
2023-05-24T10:23:01.074Z,61.53
2023-05-24T10:25:30.901Z,62.15
2023-05-24T10:28:00.285Z,58.10
2023-05-24T10:30:30.597Z,58.52
2023-05-24T10:32:58.891Z,57.10
2023-05-24T10:35:28.464Z,54.53
2023-05-24T10:37:57.464Z,54.79
2023-05-24T10:40:26.570Z,59.25
2023-05-24T10:42:56.314Z,59.42
2023-05-24T10:45:32.877Z,56.38
2023-05-24T10:48:03.690Z,55.17
2023-05-24T10:50:32.274Z,53.33
2023-05-24T10:53:15.771Z,55.59
2023-05-24T10:55:54.635Z,54.80
2023-05-24T10:58:28.501Z,58.68
2023-05-24T11:00:57.356Z,60.64
2023-05-24T11:03:25.792Z,58.44
2023-05-24T11:05:55.059Z,57.44
2023-05-24T11:08:28.139Z,56.01
2023-05-24T11:13:43.362Z,55.00
2023-05-24T11:16:12.002Z,56.37
2023-05-24T11:18:40.336Z,54.80
2023-05-24T11:21:08.660Z,58.01
2023-05-24T11:23:38.331Z,55.98
2023-05-24T11:26:08.216Z,57.38
2023-05-24T11:28:39.190Z,58.67
2023-05-24T11:31:11.055Z,59.94
2023-05-24T11:33:42.684Z,57.75
2023-05-24T11:36:11.118Z,57.64
2023-05-24T11:38:39.862Z,55.34
2023-05-24T11:41:08.667Z,57.32
2023-05-24T11:43:37.042Z,55.88
2023-05-24T11:46:05.364Z,55.55
2023-05-24T11:48:35.194Z,54.72
2023-05-24T11:51:05.915Z,58.86
2023-05-24T11:53:34.250Z,58.48
2023-05-24T11:56:05.468Z,61.11
2023-05-24T11:58:37.409Z,59.08
2023-05-24T12:01:06.031Z,59.86
2023-05-24T12:03:36.085Z,59.97
2023-05-24T12:06:04.667Z,59.16
2023-05-24T12:08:33.474Z,58.47
2023-05-24T12:11:03.040Z,57.39
2023-05-24T12:13:31.561Z,57.41
2023-05-24T12:15:59.893Z,57.75
2023-05-24T12:18:28.360Z,57.67
2023-05-24T12:20:58.092Z,57.46
2023-05-24T12:23:27.878Z,59.59
2023-05-24T12:25:59.948Z,61.40
2023-05-24T12:28:28.589Z,58.98
2023-05-24T12:30:57.235Z,60.00
2023-05-24T12:33:26.106Z,59.39
2023-05-24T12:35:54.520Z,59.71
2023-05-24T12:38:25.777Z,61.12
2023-05-24T12:41:08.116Z,58.15
2023-05-24T12:43:40.959Z,57.44
2023-05-24T12:46:09.262Z,58.17
2023-05-24T12:48:37.552Z,57.39
2023-05-24T12:51:06.432Z,58.38
2023-05-24T12:53:36.676Z,61.04
2023-05-24T12:56:05.079Z,59.03
2023-05-24T12:58:33.390Z,59.49
2023-05-24T13:01:01.781Z,62.89
2023-05-24T13:03:30.109Z,62.88
2023-05-24T13:06:00.212Z,61.13
2023-05-24T13:08:30.276Z,59.34
2023-05-24T13:11:00.500Z,58.97
2023-05-24T13:13:29.010Z,61.80
2023-05-24T13:15:57.362Z,57.91
2023-05-24T13:18:26.348Z,57.65
2023-05-24T13:20:55.088Z,57.55
2023-05-24T13:23:23.845Z,58.84
2023-05-24T13:25:52.193Z,60.47
2023-05-24T13:28:22.258Z,58.13
2023-05-24T13:30:50.616Z,59.50
2023-05-24T13:33:19.203Z,58.91
2023-05-24T13:35:47.462Z,57.64
2023-05-24T13:38:15.775Z,56.93
2023-05-24T13:40:44.554Z,57.12
2023-05-24T13:43:13.048Z,58.18
2023-05-24T13:45:43.222Z,55.75
2023-05-24T13:48:11.559Z,55.07
2023-05-24T13:50:39.978Z,53.77
2023-05-24T13:53:08.388Z,59.72
2023-05-24T13:55:37.830Z,57.20
2023-05-24T13:58:06.560Z,56.14
2023-05-24T14:00:36.202Z,54.57
2023-05-24T14:03:06.661Z,54.16
2023-05-24T14:05:35.085Z,54.01
2023-05-24T14:08:06.805Z,55.46
2023-05-24T14:10:36.801Z,53.81
2023-05-24T14:15:40.141Z,54.62
2023-05-24T14:18:10.149Z,54.74
2023-05-24T14:20:40.296Z,54.00
2023-05-24T14:23:08.894Z,53.69
2023-05-24T14:25:37.542Z,55.80
2023-05-24T14:28:07.683Z,56.87
2023-05-24T14:30:37.875Z,55.70
2023-05-24T14:33:08.481Z,56.84
2023-05-24T14:35:40.070Z,55.53
2023-05-24T14:38:08.943Z,59.06
2023-05-24T14:40:39.178Z,59.02
2023-05-24T14:43:10.344Z,58.08
2023-05-24T14:45:41.621Z,55.36
2023-05-24T14:48:11.779Z,58.87
2023-05-24T14:50:45.324Z,57.01
2023-05-24T14:53:13.904Z,55.65
2023-05-24T14:55:43.373Z,56.89
2023-05-24T14:58:13.038Z,58.36
2023-05-24T15:00:42.044Z,58.53
2023-05-24T15:03:12.800Z,58.95
2023-05-24T15:05:42.212Z,59.96
2023-05-24T15:08:12.406Z,59.98
2023-05-24T15:10:41.246Z,59.64
2023-05-24T15:13:09.747Z,60.19
2023-05-24T15:15:38.068Z,60.73
2023-05-24T15:18:06.704Z,60.89
2023-05-24T15:20:35.973Z,61.25
2023-05-24T15:23:04.442Z,59.82
2023-05-24T15:25:34.201Z,61.56
2023-05-24T15:28:03.193Z,64.30
2023-05-24T15:30:31.703Z,61.88
2023-05-24T15:33:00.614Z,65.40
2023-05-24T15:35:28.984Z,62.18
2023-05-24T15:37:57.484Z,64.78
2023-05-24T15:40:25.824Z,62.89
2023-05-24T15:42:55.579Z,62.98
2023-05-24T15:45:23.936Z,63.21
2023-05-24T15:47:52.795Z,62.88
2023-05-24T15:50:31.805Z,63.88
2023-05-24T15:53:04.691Z,64.03
2023-05-24T15:55:33.762Z,62.88
2023-05-24T16:00:32.583Z,64.57
2023-05-24T16:03:01.444Z,61.92
2023-05-24T16:05:29.822Z,60.80
2023-05-24T16:07:58.155Z,60.07
2023-05-24T16:10:26.450Z,58.85
2023-05-24T16:12:56.106Z,58.68
2023-05-24T16:15:26.681Z,59.15
2023-05-24T16:17:55.845Z,60.17
2023-05-24T16:20:24.336Z,60.51
2023-05-24T16:22:53.014Z,60.67
2023-05-24T16:25:21.335Z,59.09
2023-05-24T16:27:50.059Z,60.00
2023-05-24T16:30:18.349Z,58.54
2023-05-24T16:32:48.119Z,59.15
2023-05-24T16:35:16.580Z,58.67
2023-05-24T16:37:44.928Z,58.63
2023-05-24T16:40:14.423Z,58.94
2023-05-24T16:42:42.727Z,58.70
2023-05-24T16:45:11.607Z,59.61
2023-05-24T16:47:40.025Z,59.28
2023-05-24T16:50:14.954Z,58.00
2023-05-24T16:52:43.466Z,57.88
2023-05-24T16:55:12.510Z,56.71
2023-05-24T16:57:40.902Z,58.39
2023-05-24T17:00:10.090Z,58.95
2023-05-24T17:02:38.480Z,60.86
2023-05-24T17:05:07.630Z,62.16
2023-05-24T17:07:37.915Z,61.24
2023-05-24T17:10:07.410Z,59.38
2023-05-24T17:12:35.784Z,60.15
2023-05-24T17:15:04.095Z,60.82
2023-05-24T17:17:32.440Z,60.78
2023-05-24T17:20:01.678Z,60.66
2023-05-24T17:22:30.145Z,61.63
2023-05-24T17:24:59.878Z,62.16
2023-05-24T17:27:28.214Z,62.10
2023-05-24T17:29:57.001Z,60.61
2023-05-24T17:32:25.789Z,61.90
2023-05-24T17:34:54.458Z,62.61
2023-05-24T17:37:22.796Z,62.53
2023-05-24T17:39:52.514Z,61.93
2023-05-24T17:42:22.386Z,61.57
2023-05-24T17:44:50.898Z,63.30
2023-05-24T17:47:19.182Z,61.64
2023-05-24T17:49:48.052Z,62.47
2023-05-24T17:52:16.591Z,62.02
2023-05-24T17:54:45.027Z,62.57
2023-05-24T17:57:13.523Z,62.59
2023-05-24T17:59:43.247Z,62.47
2023-05-24T18:02:11.543Z,62.53
2023-05-24T18:04:39.883Z,63.37
2023-05-24T18:07:08.267Z,62.60
2023-05-24T18:09:36.685Z,63.57
2023-05-24T18:12:05.785Z,63.72
2023-05-24T18:14:34.150Z,64.19
2023-05-24T18:17:04.255Z,64.33
2023-05-24T18:19:32.818Z,65.00
2023-05-24T18:22:01.275Z,65.97
2023-05-24T18:24:29.692Z,66.57
2023-05-24T18:26:58.218Z,65.82
2023-05-24T18:29:26.853Z,67.31
2023-05-24T18:31:55.183Z,67.05
2023-05-24T18:34:24.946Z,68.78
2023-05-24T18:36:54.722Z,70.59
2023-05-24T18:39:23.012Z,69.98
2023-05-24T18:41:51.304Z,69.31
2023-05-24T18:44:20.059Z,71.71
2023-05-24T18:46:48.443Z,73.36
2023-05-24T18:49:17.730Z,73.94
2023-05-24T18:51:47.483Z,75.74
2023-05-24T18:54:16.109Z,77.43
2023-05-24T18:56:45.705Z,78.83
2023-05-24T18:59:14.191Z,79.89
2023-05-24T19:01:42.841Z,81.14
2023-05-24T19:04:11.273Z,82.54
2023-05-24T19:06:39.584Z,81.98
2023-05-24T19:09:09.459Z,82.94
2023-05-24T19:11:38.256Z,84.08
2023-05-24T19:14:06.540Z,85.10
2023-05-24T19:16:34.839Z,86.02
2023-05-24T19:19:03.309Z,86.16
2023-05-24T19:21:33.184Z,87.20
2023-05-24T19:24:01.812Z,87.56
2023-05-24T19:26:31.562Z,87.42
2023-05-24T19:29:00.665Z,88.13
2023-05-24T19:31:29.642Z,87.71
2023-05-24T19:34:01.012Z,89.47
2023-05-24T19:36:30.775Z,90.19
2023-05-24T19:38:59.098Z,90.77
2023-05-24T19:41:27.448Z,91.45
2023-05-24T19:43:58.819Z,91.98
2023-05-24T19:46:27.158Z,92.76
2023-05-24T19:48:55.586Z,92.80
2023-05-24T19:51:24.584Z,93.74
2023-05-24T19:53:52.863Z,95.29
2023-05-24T19:56:21.479Z,94.92
2023-05-24T19:58:50.303Z,94.92
2023-05-24T20:01:20.160Z,96.59
2023-05-24T20:03:49.594Z,97.37
2023-05-24T20:06:18.176Z,97.37
2023-05-24T20:08:46.874Z,97.29
2023-05-24T20:11:15.587Z,97.24
2023-05-24T20:13:44.336Z,98.08
2023-05-24T20:16:12.916Z,98.23
2023-05-24T20:18:42.752Z,98.98
2023-05-24T20:21:11.260Z,98.24
2023-05-24T20:23:39.651Z,98.19
2023-05-24T20:26:07.984Z,99.07
2023-05-24T20:28:36.328Z,99.35
2023-05-24T20:31:05.176Z,99.45
2023-05-24T20:33:38.145Z,99.15
2023-05-24T20:36:08.725Z,100.00
2023-05-24T20:38:37.698Z,100.00
2023-05-24T20:41:06.470Z,100.00
2023-05-24T20:43:34.767Z,100.00
2023-05-24T20:46:03.587Z,100.00
2023-05-24T20:48:31.939Z,100.00
2023-05-24T20:51:00.300Z,100.00
2023-05-24T20:53:30.070Z,100.00
2023-05-24T20:55:58.376Z,100.00
2023-05-24T20:58:26.931Z,100.00
2023-05-24T21:00:55.319Z,100.00
2023-05-24T21:03:23.785Z,100.00
2023-05-24T21:05:52.171Z,100.00
2023-05-24T21:08:20.494Z,100.00
2023-05-24T21:10:50.259Z,100.00
2023-05-24T21:13:20.562Z,100.00
2023-05-24T21:15:50.760Z,100.00
2023-05-24T21:18:19.494Z,100.00
2023-05-24T21:20:47.878Z,100.00
2023-05-24T21:23:16.272Z,100.00
2023-05-24T21:25:44.905Z,100.00
2023-05-24T21:28:15.220Z,100.00
2023-05-24T21:30:43.513Z,100.00
2023-05-24T21:33:11.890Z,100.00
2023-05-24T21:35:40.229Z,100.00
2023-05-24T21:38:08.553Z,100.00
2023-05-24T21:40:37.278Z,100.00
2023-05-24T21:43:05.816Z,100.00
2023-05-24T21:45:35.529Z,100.00
2023-05-24T21:48:03.867Z,100.00
2023-05-24T21:50:32.253Z,100.00
2023-05-24T21:53:00.880Z,100.00
2023-05-24T21:55:29.994Z,100.00
2023-05-24T21:57:58.603Z,100.00
2023-05-24T22:00:27.266Z,100.00
2023-05-24T22:02:57.113Z,100.00
2023-05-24T22:05:27.591Z,100.00
2023-05-24T22:07:56.673Z,100.00
2023-05-24T22:10:25.026Z,100.00
2023-05-24T22:12:53.330Z,100.00
2023-05-24T22:15:21.665Z,100.00
2023-05-24T22:17:50.443Z,100.00
2023-05-24T22:20:20.600Z,100.00
2023-05-24T22:22:53.793Z,100.00
2023-05-24T22:25:22.453Z,100.00
2023-05-24T22:27:50.791Z,100.00
2023-05-24T22:30:20.610Z,100.00
2023-05-24T22:32:48.988Z,100.00
2023-05-24T22:35:19.495Z,100.00
2023-05-24T22:37:47.812Z,100.00
2023-05-24T22:40:16.206Z,100.00
2023-05-24T22:42:44.539Z,100.00
2023-05-24T22:45:14.175Z,100.00
2023-05-24T22:47:42.827Z,100.00
2023-05-24T22:50:12.047Z,100.00
2023-05-24T22:52:42.784Z,100.00
2023-05-24T22:55:11.392Z,100.00
2023-05-24T22:57:39.706Z,100.00
2023-05-24T23:00:10.076Z,100.00
2023-05-24T23:02:38.479Z,100.00
2023-05-24T23:05:07.715Z,100.00
2023-05-24T23:07:37.547Z,100.00
2023-05-24T23:10:09.470Z,100.00
2023-05-24T23:12:37.814Z,100.00
2023-05-24T23:15:07.468Z,100.00
2023-05-24T23:17:36.013Z,100.00
2023-05-24T23:20:05.805Z,100.00
2023-05-24T23:22:34.183Z,100.00
2023-05-24T23:25:02.592Z,100.00
2023-05-24T23:27:32.486Z,100.00
2023-05-24T23:30:01.105Z,100.00
2023-05-24T23:32:29.726Z,100.00
2023-05-24T23:34:58.079Z,100.00
2023-05-24T23:37:26.618Z,100.00
2023-05-24T23:39:54.923Z,100.00
2023-05-24T23:42:23.760Z,100.00
2023-05-24T23:44:53.514Z,100.00
2023-05-24T23:47:21.912Z,100.00
2023-05-24T23:49:50.261Z,100.00
2023-05-24T23:52:18.784Z,100.00
2023-05-24T23:54:47.114Z,100.00
2023-05-24T23:57:17.514Z,100.00
2023-05-24T23:59:46.091Z,100.00
